Terminal Aerodrome Forecast
Issued by NWS Wakefield, VA

Home | Current Version | Previous Version | Text Only | Print | Product List | Glossary On
Versions: 1 2 3 4 5 6 7 8 9 10 11 12 13 14 15 16 17 18 19 20 21 22 23 24 25
208
FTUS41 KAKQ 301140
TAFORF
TAF
KORF 301140Z 3012/3112 12004KT P6SM VCSH OVC006
      TEMPO 3012/3014 4SM SHRA
     FM301400 05005KT P6SM OVC006
     FM301600 04006KT P6SM OVC015
     FM301800 09007KT P6SM BKN035
     FM310000 01004KT P6SM BKN250=

USA.gov is the U.S. government's official web portal to all federal, state and local government web resources and services.